Time;durP1;ratioP1;P1;durP2;ratioP2;P2;SDS_P1;SDS_P2;PMS_P1;PMS_P2;Temp;Humidity;BMP_temperature;BMP_pressure;BME280_temperature;BME280_humidity;BME280_pressure;Samples;Min_cycle;Max_cycle;Signal;HPM_P1;HPM_P2
2022/09/09 00:01:01;;;;;;;;;;;21.70;65.70;;;;;;5087910;28;19977;-69
2022/09/09 00:03:31;;;;;;;;;;;21.70;65.00;;;;;;5105063;28;19927;-69
2022/09/09 00:08:56;;;;;;;;;;;21.70;65.00;;;;;;5089864;28;19912;-69
2022/09/09 00:11:26;;;;;;;;;;;21.70;65.00;;;;;;5088282;28;19971;-69
2022/09/09 00:13:53;;;;;;;;;;;21.70;64.90;;;;;;5088752;28;19978;-69
2022/09/09 00:16:23;;;;;;;;;;;21.70;64.90;;;;;;5088505;28;19935;-69
2022/09/09 00:19:09;;;;;;;;;;;21.70;64.90;;;;;;5105721;28;19928;-69
2022/09/09 00:21:36;;;;;;;;;;;21.60;64.80;;;;;;5088581;28;19920;-69
2022/09/09 00:24:09;;;;;;;;;;;21.70;64.90;;;;;;5088395;28;19920;-69
2022/09/09 00:26:38;;;;;;;;;;;21.70;64.90;;;;;;5088429;28;19964;-69
2022/09/09 00:31:47;;;;;;;;;;;21.70;64.80;;;;;;5110180;27;19912;-70
2022/09/09 00:34:14;;;;;;;;;;;21.60;64.80;;;;;;5108912;28;19920;-69
2022/09/09 00:36:40;;;;;;;;;;;21.60;64.80;;;;;;5109163;28;20011;-69
2022/09/09 00:39:09;;;;;;;;;;;21.60;64.80;;;;;;5108427;28;19920;-69
2022/09/09 00:41:55;;;;;;;;;;;21.60;64.80;;;;;;5108718;28;19920;-69
2022/09/09 00:44:29;;;;;;;;;;;21.60;64.70;;;;;;5108568;28;20458;-69
2022/09/09 00:49:43;;;;;;;;;;;21.60;64.70;;;;;;5089946;28;19912;-69
2022/09/09 00:57:31;;;;;;;;;;;21.60;64.70;;;;;;5089865;28;19912;-69
2022/09/09 01:00:17;;;;;;;;;;;21.50;64.60;;;;;;5088828;28;19921;-69
2022/09/09 01:05:42;;;;;;;;;;;21.60;64.70;;;;;;5193415;27;19911;-69
2022/09/09 01:08:14;;;;;;;;;;;21.60;64.70;;;;;;5191907;27;19946;-69
2022/09/09 01:10:47;;;;;;;;;;;21.60;64.70;;;;;;5192179;27;20353;-69
2022/09/09 01:13:17;;;;;;;;;;;21.50;64.60;;;;;;5191851;27;19918;-69
2022/09/09 01:15:44;;;;;;;;;;;21.50;64.60;;;;;;5192188;27;19922;-69
2022/09/09 01:18:12;;;;;;;;;;;21.50;64.50;;;;;;5191787;27;19954;-69
2022/09/09 01:20:44;;;;;;;;;;;21.50;64.50;;;;;;5192064;27;19925;-69
2022/09/09 01:23:20;;;;;;;;;;;21.50;64.50;;;;;;5191491;27;19922;-68
2022/09/09 01:26:05;;;;;;;;;;;21.50;64.50;;;;;;5191995;27;19918;-68
2022/09/09 01:28:32;;;;;;;;;;;21.50;64.50;;;;;;5192598;27;19918;-68
2022/09/09 01:30:58;;;;;;;;;;;21.50;64.50;;;;;;5191478;27;19918;-68
2022/09/09 01:33:24;;;;;;;;;;;21.50;64.50;;;;;;5191748;27;19928;-69
2022/09/09 01:35:54;;;;;;;;;;;21.50;64.50;;;;;;5191381;27;19966;-69
2022/09/09 01:38:21;;;;;;;;;;;21.50;64.40;;;;;;5191621;27;19919;-69
2022/09/09 01:40:46;;;;;;;;;;;21.50;64.40;;;;;;5191358;27;20171;-70
2022/09/09 01:43:12;;;;;;;;;;;21.50;64.40;;;;;;5191207;27;20175;-69
2022/09/09 01:45:39;;;;;;;;;;;21.50;64.50;;;;;;5192545;27;19926;-69
2022/09/09 01:48:04;;;;;;;;;;;21.50;65.20;;;;;;5191651;27;19967;-69
2022/09/09 01:50:30;;;;;;;;;;;21.50;64.40;;;;;;5191103;27;19919;-69
2022/09/09 01:52:57;;;;;;;;;;;21.50;64.40;;;;;;5192354;27;19919;-69
2022/09/09 01:55:27;;;;;;;;;;;21.50;65.10;;;;;;5192520;27;19918;-69
2022/09/09 01:57:58;;;;;;;;;;;21.50;64.40;;;;;;5191331;27;20021;-69
2022/09/09 02:00:24;;;;;;;;;;;21.50;64.40;;;;;;5190920;27;20017;-69
2022/09/09 02:05:36;;;;;;;;;;;21.50;64.40;;;;;;5089847;28;19918;-69
2022/09/09 02:08:06;;;;;;;;;;;21.50;64.40;;;;;;5088586;28;20421;-69
2022/09/09 02:10:34;;;;;;;;;;;21.50;65.10;;;;;;5088448;28;19920;-69
2022/09/09 02:13:03;;;;;;;;;;;21.50;64.40;;;;;;5088802;28;20325;-68
2022/09/09 02:15:32;;;;;;;;;;;21.50;64.40;;;;;;5088497;28;20284;-69
2022/09/09 02:17:58;;;;;;;;;;;21.50;64.40;;;;;;5088302;28;20003;-69
2022/09/09 02:20:26;;;;;;;;;;;21.50;64.30;;;;;;5088341;28;19962;-68
2022/09/09 02:22:52;;;;;;;;;;;21.50;65.10;;;;;;5088621;28;20379;-69
2022/09/09 02:25:20;;;;;;;;;;;21.50;64.40;;;;;;5088136;28;19925;-68
2022/09/09 02:27:46;;;;;;;;;;;21.50;64.30;;;;;;5088209;28;19935;-69
2022/09/09 02:30:12;;;;;;;;;;;21.50;64.30;;;;;;5089283;28;19950;-69
2022/09/09 02:32:39;;;;;;;;;;;21.50;64.30;;;;;;5089345;28;19924;-69
2022/09/09 02:35:08;;;;;;;;;;;21.50;64.20;;;;;;5087966;28;20000;-69
2022/09/09 02:37:36;;;;;;;;;;;21.50;64.30;;;;;;5088109;28;19920;-69
2022/09/09 02:40:04;;;;;;;;;;;21.40;64.30;;;;;;5088995;28;19946;-69
2022/09/09 02:42:29;;;;;;;;;;;21.50;64.30;;;;;;5088295;28;19920;-69
2022/09/09 02:44:55;;;;;;;;;;;21.40;64.20;;;;;;5087715;28;19931;-69
2022/09/09 02:50:21;;;;;;;;;;;21.40;64.20;;;;;;5110172;27;19912;-69
2022/09/09 02:55:39;;;;;;;;;;;21.50;64.20;;;;;;5089930;28;19939;-69
2022/09/09 02:58:07;;;;;;;;;;;21.40;64.10;;;;;;5088896;28;20271;-69
2022/09/09 03:00:35;;;;;;;;;;;21.40;64.20;;;;;;5088796;28;19921;-69
2022/09/09 03:03:02;;;;;;;;;;;21.40;64.20;;;;;;5088526;28;19946;-69
2022/09/09 03:05:27;;;;;;;;;;;21.40;64.20;;;;;;5088757;28;19944;-69
2022/09/09 03:07:53;;;;;;;;;;;21.40;64.20;;;;;;5088397;28;20368;-69
2022/09/09 03:10:19;;;;;;;;;;;21.40;64.10;;;;;;5089565;28;19920;-69
2022/09/09 03:12:44;;;;;;;;;;;21.40;64.90;;;;;;5089560;28;20395;-69
2022/09/09 03:15:10;;;;;;;;;;;21.40;64.10;;;;;;5088550;28;19928;-69
2022/09/09 03:17:36;;;;;;;;;;;21.40;64.20;;;;;;5089436;28;19943;-69
2022/09/09 03:20:02;;;;;;;;;;;21.40;64.10;;;;;;5089501;28;19928;-69
2022/09/09 03:22:28;;;;;;;;;;;21.40;64.10;;;;;;5088373;28;19920;-69
2022/09/09 03:24:54;;;;;;;;;;;21.40;64.10;;;;;;5089433;28;20395;-69
2022/09/09 03:27:19;;;;;;;;;;;21.40;64.10;;;;;;5089298;28;19926;-69
2022/09/09 03:29:45;;;;;;;;;;;21.40;64.10;;;;;;5089255;28;19964;-69
2022/09/09 03:32:12;;;;;;;;;;;21.40;64.10;;;;;;5089233;28;19920;-68
2022/09/09 03:34:40;;;;;;;;;;;21.40;64.10;;;;;;5089046;28;19924;-69
2022/09/09 03:37:06;;;;;;;;;;;21.30;64.00;;;;;;5088173;28;19934;-69
2022/09/09 03:39:32;;;;;;;;;;;21.30;64.00;;;;;;5087892;28;19924;-68
2022/09/09 03:41:57;;;;;;;;;;;21.40;64.80;;;;;;5087602;28;19972;-68
2022/09/09 03:44:23;;;;;;;;;;;21.40;64.00;;;;;;5087766;28;19920;-68
2022/09/09 03:46:48;;;;;;;;;;;21.40;64.00;;;;;;5087617;28;19974;-69
2022/09/09 03:49:15;;;;;;;;;;;21.40;64.00;;;;;;5088991;28;19971;-68
2022/09/09 03:51:41;;;;;;;;;;;21.40;64.00;;;;;;5087591;28;19920;-68
2022/09/09 03:54:08;;;;;;;;;;;21.40;64.00;;;;;;5088470;28;19928;-69
2022/09/09 03:56:34;;;;;;;;;;;21.30;64.00;;;;;;5087333;28;19928;-68
2022/09/09 03:58:59;;;;;;;;;;;21.30;64.00;;;;;;5088696;28;19925;-69
2022/09/09 04:01:25;;;;;;;;;;;21.30;64.00;;;;;;5087440;28;19927;-68
2022/09/09 04:03:50;;;;;;;;;;;21.30;64.00;;;;;;5087599;28;19920;-69
2022/09/09 04:06:17;;;;;;;;;;;21.30;64.00;;;;;;5078652;28;20303;-69
2022/09/09 04:08:42;;;;;;;;;;;21.30;64.00;;;;;;5074984;28;20011;-69
2022/09/09 04:11:08;;;;;;;;;;;21.30;64.00;;;;;;5075021;28;20343;-68
2022/09/09 04:13:34;;;;;;;;;;;21.30;63.90;;;;;;5073689;28;19925;-69
2022/09/09 04:16:01;;;;;;;;;;;21.30;63.90;;;;;;5073971;28;20386;-68
2022/09/09 04:18:28;;;;;;;;;;;21.30;64.00;;;;;;5074939;28;19924;-69
2022/09/09 04:20:54;;;;;;;;;;;21.30;64.00;;;;;;5073818;28;20280;-69
2022/09/09 04:23:20;;;;;;;;;;;21.30;63.90;;;;;;5073464;28;19921;-68
2022/09/09 04:25:47;;;;;;;;;;;21.30;63.90;;;;;;5073836;28;20015;-68
2022/09/09 04:28:13;;;;;;;;;;;21.30;63.90;;;;;;5074654;28;20007;-68
2022/09/09 04:30:39;;;;;;;;;;;21.30;64.00;;;;;;5074747;28;19928;-68
2022/09/09 04:33:05;;;;;;;;;;;21.30;63.90;;;;;;5073634;28;20375;-69
2022/09/09 04:35:31;;;;;;;;;;;21.30;63.90;;;;;;5073129;28;20394;-69
2022/09/09 04:37:56;;;;;;;;;;;21.30;63.90;;;;;;5073516;28;19920;-69
2022/09/09 04:40:22;;;;;;;;;;;21.30;63.90;;;;;;5073136;28;19924;-68
2022/09/09 04:42:48;;;;;;;;;;;21.30;63.90;;;;;;5073374;28;19986;-69
2022/09/09 04:45:13;;;;;;;;;;;21.30;64.00;;;;;;5074549;28;20284;-69
2022/09/09 04:47:39;;;;;;;;;;;21.30;63.90;;;;;;5073313;28;19942;-69
2022/09/09 04:50:05;;;;;;;;;;;21.30;63.90;;;;;;5074297;28;19979;-68
2022/09/09 04:52:30;;;;;;;;;;;21.20;63.80;;;;;;5074366;28;19920;-69
2022/09/09 04:54:56;;;;;;;;;;;21.20;63.80;;;;;;5073913;28;19932;-69
2022/09/09 04:57:21;;;;;;;;;;;21.20;63.80;;;;;;5072755;28;19927;-68
2022/09/09 04:59:47;;;;;;;;;;;21.30;63.90;;;;;;5072712;28;19928;-68
2022/09/09 05:02:13;;;;;;;;;;;21.30;63.90;;;;;;5073101;28;20070;-71
2022/09/09 05:04:38;;;;;;;;;;;21.20;63.80;;;;;;5072882;28;19920;-69
2022/09/09 05:07:04;;;;;;;;;;;21.20;63.80;;;;;;5073998;28;19960;-68
2022/09/09 05:09:30;;;;;;;;;;;21.20;63.80;;;;;;5074207;28;20292;-68
2022/09/09 05:11:55;;;;;;;;;;;21.20;63.80;;;;;;5072615;28;19928;-69
2022/09/09 05:14:21;;;;;;;;;;;21.20;63.70;;;;;;5072437;28;19924;-69
2022/09/09 05:16:47;;;;;;;;;;;21.20;63.80;;;;;;5071736;28;19920;-69
2022/09/09 05:19:12;;;;;;;;;;;21.20;63.70;;;;;;5073466;28;19921;-69
2022/09/09 05:21:38;;;;;;;;;;;21.20;63.80;;;;;;5072637;28;19927;-69
2022/09/09 05:24:03;;;;;;;;;;;21.20;63.70;;;;;;5072615;28;19920;-69
2022/09/09 05:26:29;;;;;;;;;;;21.20;63.70;;;;;;5072203;28;19927;-69
2022/09/09 05:28:55;;;;;;;;;;;21.20;63.70;;;;;;5072546;28;19927;-69
2022/09/09 05:31:21;;;;;;;;;;;21.20;63.70;;;;;;5073321;28;19924;-69
2022/09/09 05:33:47;;;;;;;;;;;21.20;63.70;;;;;;5073535;28;19928;-68
2022/09/09 05:36:15;;;;;;;;;;;21.20;63.70;;;;;;5073186;28;20020;-66
2022/09/09 05:38:41;;;;;;;;;;;21.20;63.70;;;;;;5068217;28;20299;-72
2022/09/09 05:41:07;;;;;;;;;;;21.20;63.60;;;;;;5070625;28;20023;-66
2022/09/09 05:43:34;;;;;;;;;;;21.20;63.60;;;;;;5070256;28;19920;-72
2022/09/09 05:46:04;;;;;;;;;;;21.20;63.50;;;;;;5070743;28;19924;-67
2022/09/09 05:48:30;;;;;;;;;;;21.30;63.60;;;;;;5068997;28;20451;-66
2022/09/09 05:50:56;;;;;;;;;;;21.30;63.30;;;;;;5065639;28;19920;-66
2022/09/09 05:53:21;;;;;;;;;;;21.40;63.30;;;;;;5048890;28;20015;-66
2022/09/09 05:55:48;;;;;;;;;;;21.40;63.10;;;;;;5067606;28;19931;-66
2022/09/09 05:58:14;;;;;;;;;;;21.40;63.00;;;;;;5070260;28;20415;-67
2022/09/09 06:00:39;;;;;;;;;;;21.40;63.00;;;;;;5062548;28;19924;-68
2022/09/09 06:03:05;;;;;;;;;;;21.50;63.00;;;;;;5068841;28;19921;-67
2022/09/09 06:05:30;;;;;;;;;;;21.50;63.00;;;;;;5065669;28;19921;-68
2022/09/09 06:07:56;;;;;;;;;;;21.50;62.90;;;;;;5053855;28;19969;-67
2022/09/09 06:10:21;;;;;;;;;;;21.50;62.90;;;;;;5049332;28;19928;-67
2022/09/09 06:12:47;;;;;;;;;;;21.50;63.00;;;;;;5050369;28;20662;-68
2022/09/09 06:15:12;;;;;;;;;;;21.50;63.00;;;;;;5044677;28;20602;-67
2022/09/09 06:17:38;;;;;;;;;;;21.50;62.90;;;;;;5044965;28;19929;-68
2022/09/09 06:20:04;;;;;;;;;;;21.50;62.90;;;;;;5067044;28;19921;-68
2022/09/09 06:22:30;;;;;;;;;;;21.50;62.90;;;;;;5050587;28;19942;-68
2022/09/09 06:24:55;;;;;;;;;;;21.50;62.90;;;;;;5056926;28;19927;-67
2022/09/09 06:27:21;;;;;;;;;;;21.50;62.90;;;;;;5053863;28;19932;-67
2022/09/09 06:29:49;;;;;;;;;;;21.50;63.00;;;;;;5064614;28;20149;-70
2022/09/09 06:32:23;;;;;;;;;;;21.50;63.10;;;;;;5048562;28;19920;-70
2022/09/09 06:34:49;;;;;;;;;;;21.50;63.00;;;;;;5050735;28;20291;-69
2022/09/09 06:37:15;;;;;;;;;;;21.50;63.00;;;;;;5047833;28;19932;-69
2022/09/09 06:39:40;;;;;;;;;;;21.50;63.00;;;;;;5047627;28;19931;-69
2022/09/09 06:42:08;;;;;;;;;;;21.60;63.00;;;;;;5065183;28;20025;-69
2022/09/09 06:44:34;;;;;;;;;;;21.50;62.90;;;;;;5046496;28;20572;-69
2022/09/09 06:46:59;;;;;;;;;;;21.50;63.10;;;;;;5049151;28;19925;-69
2022/09/09 06:49:25;;;;;;;;;;;21.60;63.10;;;;;;5048716;28;19920;-72
2022/09/09 06:51:51;;;;;;;;;;;21.60;63.10;;;;;;5050942;28;19925;-69
2022/09/09 06:54:18;;;;;;;;;;;21.60;63.20;;;;;;5050153;28;20027;-69
2022/09/09 06:56:44;;;;;;;;;;;21.60;63.30;;;;;;5049789;28;20484;-68
2022/09/09 06:59:10;;;;;;;;;;;21.60;63.40;;;;;;5049078;28;20015;-69
2022/09/09 07:01:37;;;;;;;;;;;21.60;63.40;;;;;;5052303;28;20019;-68
2022/09/09 07:04:04;;;;;;;;;;;21.70;63.30;;;;;;5049096;28;19977;-70
2022/09/09 07:06:30;;;;;;;;;;;21.70;63.20;;;;;;5067834;28;20291;-71
2022/09/09 07:08:58;;;;;;;;;;;21.70;63.20;;;;;;5047891;28;19929;-72
2022/09/09 07:11:26;;;;;;;;;;;21.70;63.30;;;;;;5051371;28;19928;-68
2022/09/09 07:13:52;;;;;;;;;;;21.70;63.20;;;;;;5049603;28;20530;-70
2022/09/09 07:16:19;;;;;;;;;;;21.70;63.20;;;;;;5052779;28;19963;-66
2022/09/09 07:18:44;;;;;;;;;;;21.70;63.20;;;;;;5050902;28;19925;-68
2022/09/09 07:21:11;;;;;;;;;;;21.80;63.20;;;;;;5048029;28;20364;-69
2022/09/09 07:23:38;;;;;;;;;;;21.80;63.30;;;;;;5052697;28;20011;-69
2022/09/09 07:26:07;;;;;;;;;;;21.80;63.30;;;;;;5047991;28;19927;-67
2022/09/09 07:28:34;;;;;;;;;;;21.80;63.20;;;;;;5049647;28;19963;-68
2022/09/09 07:31:02;;;;;;;;;;;21.80;63.30;;;;;;5053941;28;20712;-68
2022/09/09 07:33:30;;;;;;;;;;;21.80;63.20;;;;;;5053510;28;19925;-68
2022/09/09 07:36:02;;;;;;;;;;;21.90;63.30;;;;;;5050107;28;19960;-69
2022/09/09 07:38:29;;;;;;;;;;;21.90;63.30;;;;;;5047033;28;20045;-68
2022/09/09 07:41:02;;;;;;;;;;;21.80;63.30;;;;;;5031831;28;20301;-70
2022/09/09 07:43:27;;;;;;;;;;;21.90;63.30;;;;;;5046177;28;19928;-69
2022/09/09 07:46:01;;;;;;;;;;;21.90;63.30;;;;;;5051916;28;20617;-68
2022/09/09 07:48:27;;;;;;;;;;;21.90;63.30;;;;;;5050636;28;20283;-70
2022/09/09 07:51:02;;;;;;;;;;;21.90;63.40;;;;;;5055259;28;20343;-71
2022/09/09 07:53:28;;;;;;;;;;;21.90;63.40;;;;;;5051034;28;20018;-69
2022/09/09 07:55:55;;;;;;;;;;;21.90;63.30;;;;;;5064727;28;19925;-69
2022/09/09 07:58:21;;;;;;;;;;;22.00;63.50;;;;;;5054836;28;20245;-69
2022/09/09 08:00:46;;;;;;;;;;;22.00;63.60;;;;;;5051062;28;20329;-75
2022/09/09 08:03:12;;;;;;;;;;;22.00;63.60;;;;;;5052149;28;20053;-69
2022/09/09 08:05:39;;;;;;;;;;;22.00;63.70;;;;;;5053373;28;19982;-70
2022/09/09 08:08:04;;;;;;;;;;;22.00;63.80;;;;;;5053936;28;19947;-68
2022/09/09 08:10:30;;;;;;;;;;;22.00;63.80;;;;;;5053297;28;20439;-68
2022/09/09 08:12:56;;;;;;;;;;;22.10;63.80;;;;;;5052758;28;20298;-68
2022/09/09 08:15:21;;;;;;;;;;;22.00;63.70;;;;;;5048375;28;19932;-73
2022/09/09 08:17:47;;;;;;;;;;;22.10;64.10;;;;;;5051552;28;19928;-69
2022/09/09 08:20:12;;;;;;;;;;;22.10;63.90;;;;;;5057276;28;19928;-68
2022/09/09 08:22:38;;;;;;;;;;;22.10;64.00;;;;;;5066087;28;19924;-68
2022/09/09 08:25:06;;;;;;;;;;;22.10;63.90;;;;;;5052495;28;20580;-69
2022/09/09 08:27:32;;;;;;;;;;;22.10;64.10;;;;;;5048717;28;19986;-69
2022/09/09 08:29:58;;;;;;;;;;;22.10;64.10;;;;;;5057294;28;19924;-69
2022/09/09 08:32:24;;;;;;;;;;;22.10;64.00;;;;;;5070729;28;19977;-68
2022/09/09 08:34:51;;;;;;;;;;;22.10;63.80;;;;;;5051964;28;19924;-69
2022/09/09 08:37:16;;;;;;;;;;;22.10;63.90;;;;;;5058174;28;19929;-68
2022/09/09 08:39:42;;;;;;;;;;;22.10;64.10;;;;;;5055537;28;19977;-68
2022/09/09 08:50:24;;;;;;;;;;;22.20;64.10;;;;;;5073345;27;19945;-68
2022/09/09 08:55:41;;;;;;;;;;;22.20;64.40;;;;;;5071171;28;19925;-68
2022/09/09 08:58:25;;;;;;;;;;;22.20;64.40;;;;;;5071935;28;20274;-68
2022/09/09 09:01:11;;;;;;;;;;;22.30;64.50;;;;;;5071348;28;20021;-71
2022/09/09 09:03:44;;;;;;;;;;;22.20;64.50;;;;;;5058783;28;19932;-67
2022/09/09 09:06:22;;;;;;;;;;;22.30;65.10;;;;;;5060027;28;20059;-66
2022/09/09 09:09:08;;;;;;;;;;;22.30;64.60;;;;;;5059393;28;19924;-66
2022/09/09 09:11:37;;;;;;;;;;;22.30;64.80;;;;;;5063326;28;20042;-69
2022/09/09 09:14:06;;;;;;;;;;;22.30;64.70;;;;;;5057041;28;19928;-66
2022/09/09 09:19:14;;;;;;;;;;;22.40;64.50;;;;;;5064167;28;19953;-66
2022/09/09 09:21:43;;;;;;;;;;;22.30;64.40;;;;;;5060850;28;19965;-66
2022/09/09 09:24:28;;;;;;;;;;;22.40;64.60;;;;;;5073043;28;20344;-66
2022/09/09 09:26:54;;;;;;;;;;;22.30;64.30;;;;;;5051076;28;20404;-67
2022/09/09 09:29:19;;;;;;;;;;;22.30;64.20;;;;;;5049891;28;19924;-66
2022/09/09 09:31:47;;;;;;;;;;;22.40;64.60;;;;;;5053418;28;19925;-67
2022/09/09 09:34:13;;;;;;;;;;;22.40;64.90;;;;;;5046218;28;20117;-66
2022/09/09 09:36:41;;;;;;;;;;;22.40;65.20;;;;;;5052950;28;19931;-67
2022/09/09 09:39:06;;;;;;;;;;;22.40;65.40;;;;;;5065457;28;19929;-66
2022/09/09 09:41:34;;;;;;;;;;;22.50;65.50;;;;;;5054088;28;20399;-67
2022/09/09 09:44:00;;;;;;;;;;;22.50;65.80;;;;;;5070493;28;20011;-66
2022/09/09 09:46:26;;;;;;;;;;;22.50;65.80;;;;;;5052929;28;19947;-66
2022/09/09 09:48:59;;;;;;;;;;;22.50;65.60;;;;;;5071182;28;20368;-66
2022/09/09 09:51:25;;;;;;;;;;;22.50;65.60;;;;;;5050929;28;19920;-66
2022/09/09 09:53:53;;;;;;;;;;;22.50;65.50;;;;;;5052783;28;19920;-66
2022/09/09 09:56:27;;;;;;;;;;;22.50;65.50;;;;;;5066113;28;19924;-67
2022/09/09 09:58:54;;;;;;;;;;;22.50;65.40;;;;;;5045342;28;19967;-66
2022/09/09 10:01:24;;;;;;;;;;;22.50;65.70;;;;;;5045842;28;20432;-64
2022/09/09 10:03:51;;;;;;;;;;;22.50;66.20;;;;;;5048307;28;20016;-64
2022/09/09 10:06:16;;;;;;;;;;;22.50;65.50;;;;;;5063264;28;19931;-64
2022/09/09 10:08:46;;;;;;;;;;;22.60;65.50;;;;;;5047353;28;19925;-64
2022/09/09 10:11:23;;;;;;;;;;;22.60;66.10;;;;;;5064525;28;19960;-65
2022/09/09 10:14:09;;;;;;;;;;;22.60;65.40;;;;;;5056487;28;19925;-66
2022/09/09 10:16:44;;;;;;;;;;;22.60;65.50;;;;;;5055228;28;19956;-65
2022/09/09 10:19:13;;;;;;;;;;;22.60;65.40;;;;;;5072962;28;19963;-66
2022/09/09 10:21:59;;;;;;;;;;;22.60;65.40;;;;;;5074627;28;19925;-66
2022/09/09 10:30:22;;;;;;;;;;;22.60;64.90;;;;;;5055070;28;19947;-66
2022/09/09 10:35:31;;;;;;;;;;;22.70;64.60;;;;;;5097346;27;1856581;-66
2022/09/09 10:38:17;;;;;;;;;;;22.60;64.40;;;;;;5138469;27;19958;-66
2022/09/09 10:46:28;;;;;;;;;;;22.70;64.10;;;;;;5083631;27;20376;-68
2022/09/09 10:51:53;;;;;;;;;;;22.60;64.10;;;;;;5090017;27;20300;-66
2022/09/09 10:54:24;;;;;;;;;;;22.60;64.20;;;;;;5085794;28;20032;-68
2022/09/09 10:56:54;;;;;;;;;;;22.60;64.30;;;;;;5089199;28;19931;-65
2022/09/09 10:59:24;;;;;;;;;;;22.70;64.30;;;;;;5074008;28;20457;-67
2022/09/09 11:01:53;;;;;;;;;;;22.70;64.20;;;;;;5090034;28;19931;-65
2022/09/09 11:04:22;;;;;;;;;;;22.80;64.40;;;;;;5088570;28;20187;-66
2022/09/09 11:06:52;;;;;;;;;;;22.80;64.50;;;;;;5088211;28;19931;-65
2022/09/09 11:09:19;;;;;;;;;;;22.80;64.50;;;;;;5087522;28;19928;-66
2022/09/09 11:12:02;;;;;;;;;;;22.80;64.40;;;;;;5088836;28;20047;-67
2022/09/09 11:14:44;;;;;;;;;;;22.80;64.30;;;;;;5089462;28;19928;-65
2022/09/09 11:17:12;;;;;;;;;;;22.80;64.20;;;;;;5113077;27;20349;-66
2022/09/09 11:19:39;;;;;;;;;;;22.80;64.30;;;;;;5119961;27;20328;-65
2022/09/09 11:22:25;;;;;;;;;;;22.80;64.20;;;;;;5088685;28;20213;-63
2022/09/09 11:24:54;;;;;;;;;;;22.80;64.20;;;;;;5089756;28;19931;-63
2022/09/09 11:27:24;;;;;;;;;;;22.80;64.20;;;;;;5093202;28;19920;-64
2022/09/09 11:30:00;;;;;;;;;;;22.80;64.30;;;;;;5091927;28;20365;-64
2022/09/09 11:32:34;;;;;;;;;;;22.80;64.20;;;;;;5089833;28;19958;-64
2022/09/09 11:35:20;;;;;;;;;;;22.80;64.90;;;;;;5092074;28;19934;-64
2022/09/09 11:38:06;;;;;;;;;;;22.80;64.10;;;;;;5090827;28;20504;-65
2022/09/09 11:40:32;;;;;;;;;;;22.80;65.00;;;;;;5096323;28;19930;-63
2022/09/09 11:43:09;;;;;;;;;;;22.80;64.30;;;;;;5124978;27;20013;-65
2022/09/09 11:45:35;;;;;;;;;;;22.80;64.40;;;;;;5123417;27;19924;-62
2022/09/09 11:48:01;;;;;;;;;;;22.80;64.40;;;;;;5090020;28;19924;-62
2022/09/09 11:50:29;;;;;;;;;;;22.80;64.40;;;;;;5085728;28;20504;-63
2022/09/09 11:53:15;;;;;;;;;;;22.80;64.30;;;;;;5087907;28;19978;-63
2022/09/09 11:55:40;;;;;;;;;;;22.80;64.30;;;;;;5094351;28;19924;-64
2022/09/09 12:00:50;;;;;;;;;;;22.90;65.00;;;;;;5079287;27;19942;-63
2022/09/09 12:03:36;;;;;;;;;;;22.80;64.10;;;;;;5079341;28;19924;-64
2022/09/09 12:08:58;;;;;;;;;;;22.90;64.10;;;;;;5069125;28;20355;-63
2022/09/09 12:11:25;;;;;;;;;;;22.90;64.00;;;;;;5066029;28;19925;-63
2022/09/09 12:13:53;;;;;;;;;;;22.90;63.90;;;;;;5061678;28;19973;-70
2022/09/09 12:16:28;;;;;;;;;;;22.90;63.90;;;;;;5058633;28;20419;-63
2022/09/09 12:19:02;;;;;;;;;;;22.90;63.90;;;;;;5065222;28;20021;-66
2022/09/09 12:24:11;;;;;;;;;;;22.90;63.90;;;;;;5087721;27;19930;-65
2022/09/09 12:26:53;;;;;;;;;;;22.90;63.80;;;;;;5102147;27;20773;-66
2022/09/09 12:32:04;;;;;;;;;;;22.90;63.70;;;;;;5049514;28;20289;-66
2022/09/09 12:34:47;;;;;;;;;;;22.90;63.60;;;;;;5052684;28;19924;-65
2022/09/09 12:37:31;;;;;;;;;;;22.90;63.60;;;;;;5053392;28;19921;-64
2022/09/09 12:39:57;;;;;;;;;;;22.90;63.40;;;;;;5052888;28;19932;-63
2022/09/09 12:42:23;;;;;;;;;;;22.90;63.30;;;;;;5053883;28;20442;-63
2022/09/09 12:44:53;;;;;;;;;;;23.00;63.30;;;;;;5049383;28;19924;-66
2022/09/09 12:47:19;;;;;;;;;;;23.00;63.50;;;;;;5051029;28;20002;-65
2022/09/09 12:49:47;;;;;;;;;;;23.00;63.50;;;;;;5045014;28;20288;-65
2022/09/09 12:52:26;;;;;;;;;;;23.00;63.40;;;;;;5043646;28;19986;-65
2022/09/09 12:54:53;;;;;;;;;;;23.00;63.50;;;;;;5055643;28;19956;-65
2022/09/09 12:57:20;;;;;;;;;;;23.00;63.50;;;;;;5049161;28;20010;-64
2022/09/09 12:59:45;;;;;;;;;;;23.00;63.60;;;;;;5048542;28;19920;-65
2022/09/09 13:02:20;;;;;;;;;;;23.10;63.50;;;;;;5048325;28;19925;-65
2022/09/09 13:04:46;;;;;;;;;;;23.10;63.40;;;;;;5051019;28;19924;-65
2022/09/09 13:07:13;;;;;;;;;;;23.10;63.30;;;;;;5053110;28;19925;-65
2022/09/09 13:09:39;;;;;;;;;;;23.10;63.20;;;;;;5056355;28;19927;-65
2022/09/09 13:12:07;;;;;;;;;;;23.10;63.10;;;;;;5055426;28;20169;-66
2022/09/09 13:14:37;;;;;;;;;;;23.10;63.00;;;;;;5055020;28;19920;-66
2022/09/09 13:17:03;;;;;;;;;;;23.10;63.00;;;;;;5053354;28;19921;-66
2022/09/09 13:19:31;;;;;;;;;;;23.10;62.80;;;;;;5052661;28;20441;-67
2022/09/09 13:21:57;;;;;;;;;;;23.10;62.70;;;;;;5047800;28;20280;-67
2022/09/09 13:24:27;;;;;;;;;;;23.10;62.70;;;;;;5054417;28;19921;-66
2022/09/09 13:26:56;;;;;;;;;;;23.10;62.70;;;;;;5067887;28;20003;-66
2022/09/09 13:29:21;;;;;;;;;;;23.00;62.70;;;;;;5051214;28;20594;-67
2022/09/09 13:31:48;;;;;;;;;;;23.00;62.60;;;;;;5054482;28;19964;-66
2022/09/09 13:34:27;;;;;;;;;;;23.00;62.60;;;;;;5054849;28;20191;-66
2022/09/09 13:36:54;;;;;;;;;;;23.10;62.70;;;;;;5059086;28;19921;-65
2022/09/09 13:39:20;;;;;;;;;;;23.00;62.70;;;;;;5060488;28;19921;-71
2022/09/09 13:41:46;;;;;;;;;;;23.00;62.60;;;;;;5057237;28;19936;-65
2022/09/09 13:44:28;;;;;;;;;;;23.00;62.60;;;;;;5047980;28;20261;-65
2022/09/09 13:49:49;;;;;;;;;;;23.10;62.70;;;;;;5104204;27;19966;-66
2022/09/09 13:52:18;;;;;;;;;;;23.10;62.60;;;;;;5085772;28;19926;-66
2022/09/09 13:54:48;;;;;;;;;;;23.10;62.70;;;;;;5090213;28;19920;-66
2022/09/09 13:57:18;;;;;;;;;;;23.10;62.60;;;;;;5099812;28;19921;-65
2022/09/09 13:59:45;;;;;;;;;;;23.10;62.60;;;;;;5093700;28;20043;-64
2022/09/09 14:02:10;;;;;;;;;;;23.10;62.50;;;;;;5066132;28;19928;-69
2022/09/09 14:04:36;;;;;;;;;;;23.20;62.40;;;;;;5084327;28;19982;-63
2022/09/09 14:07:02;;;;;;;;;;;23.20;62.20;;;;;;5086086;28;20118;-64
2022/09/09 14:09:27;;;;;;;;;;;23.10;62.10;;;;;;5083292;28;19925;-63
2022/09/09 14:11:54;;;;;;;;;;;23.10;62.00;;;;;;5083060;28;19934;-64
2022/09/09 14:14:20;;;;;;;;;;;23.20;62.00;;;;;;5083120;28;19920;-64
2022/09/09 14:16:46;;;;;;;;;;;23.20;62.00;;;;;;5084234;28;19989;-64
2022/09/09 14:19:11;;;;;;;;;;;23.10;61.90;;;;;;5084541;28;20022;-63
2022/09/09 14:21:37;;;;;;;;;;;23.10;61.80;;;;;;5084547;28;19920;-63
2022/09/09 14:24:02;;;;;;;;;;;23.10;62.60;;;;;;5084158;28;19955;-63
2022/09/09 14:26:29;;;;;;;;;;;23.10;61.70;;;;;;5082579;28;19920;-66
2022/09/09 14:28:55;;;;;;;;;;;23.10;61.60;;;;;;5086044;28;20015;-65
2022/09/09 14:31:21;;;;;;;;;;;23.10;61.80;;;;;;5082817;28;19924;-65
2022/09/09 14:33:47;;;;;;;;;;;23.10;61.80;;;;;;5085925;28;19928;-65
2022/09/09 14:36:12;;;;;;;;;;;23.10;61.80;;;;;;5086778;28;19928;-65
2022/09/09 14:38:39;;;;;;;;;;;23.10;61.70;;;;;;5081457;28;19947;-64
2022/09/09 14:41:05;;;;;;;;;;;23.10;61.80;;;;;;5100120;28;19968;-65
2022/09/09 14:43:32;;;;;;;;;;;23.10;61.80;;;;;;5084004;28;19920;-66
2022/09/09 14:46:06;;;;;;;;;;;23.10;61.80;;;;;;5098097;28;19919;-65
2022/09/09 14:48:33;;;;;;;;;;;23.10;61.90;;;;;;5104579;28;20364;-66
2022/09/09 14:51:04;;;;;;;;;;;23.10;61.90;;;;;;5121968;27;20425;-66
2022/09/09 14:53:29;;;;;;;;;;;23.10;61.90;;;;;;5091282;28;19927;-67
2022/09/09 14:56:02;;;;;;;;;;;23.10;61.90;;;;;;5069862;28;20054;-67
2022/09/09 14:58:30;;;;;;;;;;;23.10;61.80;;;;;;5087506;28;19969;-67
2022/09/09 15:01:01;;;;;;;;;;;23.10;62.00;;;;;;5092494;28;19927;-67
2022/09/09 15:03:27;;;;;;;;;;;23.00;61.90;;;;;;5090786;28;20015;-67
2022/09/09 15:05:52;;;;;;;;;;;22.90;61.90;;;;;;5090128;28;20502;-67
2022/09/09 15:08:18;;;;;;;;;;;23.00;62.00;;;;;;5088441;28;19924;-67
2022/09/09 15:10:44;;;;;;;;;;;23.00;62.00;;;;;;5083574;28;19952;-68
2022/09/09 15:13:10;;;;;;;;;;;22.90;62.10;;;;;;5104161;28;20009;-68
2022/09/09 15:15:35;;;;;;;;;;;22.90;62.10;;;;;;5071413;28;19991;-67
2022/09/09 15:18:01;;;;;;;;;;;22.90;62.10;;;;;;5104781;28;20415;-67
2022/09/09 15:20:26;;;;;;;;;;;22.90;62.20;;;;;;5072372;28;19926;-68
2022/09/09 15:22:52;;;;;;;;;;;22.80;62.20;;;;;;5104425;28;19927;-67
2022/09/09 15:25:18;;;;;;;;;;;22.80;62.20;;;;;;5098469;28;20011;-67
2022/09/09 15:27:44;;;;;;;;;;;22.80;62.20;;;;;;5055386;28;20384;-67
2022/09/09 15:30:09;;;;;;;;;;;22.80;62.30;;;;;;5055172;28;19920;-68
2022/09/09 15:32:35;;;;;;;;;;;22.80;62.30;;;;;;5104420;28;19932;-67